sensor_id;sensor_type;location;lat;lon;timestamp;temperature;humidity
13960;DHT22;7052;51.050;3.716;2022-08-19T00:01:36;19.20;99.90
13960;DHT22;7052;51.050;3.716;2022-08-19T00:04:10;19.10;99.90
13960;DHT22;7052;51.050;3.716;2022-08-19T00:06:39;19.10;99.90
13960;DHT22;7052;51.050;3.716;2022-08-19T00:09:11;19.10;99.90
13960;DHT22;7052;51.050;3.716;2022-08-19T00:11:38;19.10;99.90
13960;DHT22;7052;51.050;3.716;2022-08-19T00:14:07;19.00;99.90
13960;DHT22;7052;51.050;3.716;2022-08-19T00:16:35;19.00;99.90
13960;DHT22;7052;51.050;3.716;2022-08-19T00:19:03;19.00;99.90
13960;DHT22;7052;51.050;3.716;2022-08-19T00:21:30;18.90;99.90
13960;DHT22;7052;51.050;3.716;2022-08-19T00:23:57;18.90;99.90
13960;DHT22;7052;51.050;3.716;2022-08-19T00:26:26;18.90;99.90
13960;DHT22;7052;51.050;3.716;2022-08-19T00:28:53;18.80;99.90
13960;DHT22;7052;51.050;3.716;2022-08-19T00:31:20;18.80;99.90
13960;DHT22;7052;51.050;3.716;2022-08-19T00:33:47;18.80;99.90
13960;DHT22;7052;51.050;3.716;2022-08-19T00:36:16;18.70;99.90
13960;DHT22;7052;51.050;3.716;2022-08-19T00:38:43;18.70;99.90
13960;DHT22;7052;51.050;3.716;2022-08-19T00:41:12;18.70;99.90
13960;DHT22;7052;51.050;3.716;2022-08-19T00:43:41;18.70;99.90
13960;DHT22;7052;51.050;3.716;2022-08-19T00:46:08;18.60;99.90
13960;DHT22;7052;51.050;3.716;2022-08-19T00:48:35;18.60;99.90
13960;DHT22;7052;51.050;3.716;2022-08-19T00:51:04;18.60;99.90
13960;DHT22;7052;51.050;3.716;2022-08-19T00:53:32;18.60;99.90
13960;DHT22;7052;51.050;3.716;2022-08-19T00:56:01;18.60;99.90
13960;DHT22;7052;51.050;3.716;2022-08-19T00:58:32;18.60;99.90
13960;DHT22;7052;51.050;3.716;2022-08-19T01:01:02;18.60;99.90
13960;DHT22;7052;51.050;3.716;2022-08-19T01:03:29;18.60;99.90
13960;DHT22;7052;51.050;3.716;2022-08-19T01:05:56;18.60;99.90
13960;DHT22;7052;51.050;3.716;2022-08-19T01:08:25;18.60;99.90
13960;DHT22;7052;51.050;3.716;2022-08-19T01:10:55;18.60;99.90
13960;DHT22;7052;51.050;3.716;2022-08-19T01:13:24;18.60;99.90
13960;DHT22;7052;51.050;3.716;2022-08-19T01:15:55;18.70;99.90
13960;DHT22;7052;51.050;3.716;2022-08-19T01:18:25;18.60;99.90
13960;DHT22;7052;51.050;3.716;2022-08-19T01:20:55;18.60;99.90
13960;DHT22;7052;51.050;3.716;2022-08-19T01:23:24;18.60;99.90
13960;DHT22;7052;51.050;3.716;2022-08-19T01:31:20;18.40;99.90
13960;DHT22;7052;51.050;3.716;2022-08-19T01:33:48;18.40;99.90
13960;DHT22;7052;51.050;3.716;2022-08-19T01:36:23;18.30;99.90
13960;DHT22;7052;51.050;3.716;2022-08-19T01:38:53;18.30;99.90
13960;DHT22;7052;51.050;3.716;2022-08-19T01:41:20;18.20;99.90
13960;DHT22;7052;51.050;3.716;2022-08-19T01:43:49;18.20;99.90
13960;DHT22;7052;51.050;3.716;2022-08-19T01:46:16;18.20;99.90
13960;DHT22;7052;51.050;3.716;2022-08-19T01:48:44;18.20;99.90
13960;DHT22;7052;51.050;3.716;2022-08-19T01:51:11;18.10;99.90
13960;DHT22;7052;51.050;3.716;2022-08-19T01:53:39;18.10;99.90
13960;DHT22;7052;51.050;3.716;2022-08-19T01:56:08;18.10;99.90
13960;DHT22;7052;51.050;3.716;2022-08-19T01:58:38;18.00;99.90
13960;DHT22;7052;51.050;3.716;2022-08-19T02:01:07;18.00;99.90
13960;DHT22;7052;51.050;3.716;2022-08-19T02:03:34;18.00;99.90
13960;DHT22;7052;51.050;3.716;2022-08-19T02:06:02;18.00;99.90
13960;DHT22;7052;51.050;3.716;2022-08-19T02:08:32;17.90;99.90
13960;DHT22;7052;51.050;3.716;2022-08-19T02:10:59;17.90;99.90
13960;DHT22;7052;51.050;3.716;2022-08-19T02:13:27;17.90;99.90
13960;DHT22;7052;51.050;3.716;2022-08-19T02:15:54;17.90;99.90
13960;DHT22;7052;51.050;3.716;2022-08-19T02:18:21;17.90;99.90
13960;DHT22;7052;51.050;3.716;2022-08-19T02:20:48;17.80;99.90
13960;DHT22;7052;51.050;3.716;2022-08-19T02:23:16;17.80;99.90
13960;DHT22;7052;51.050;3.716;2022-08-19T02:25:45;17.80;99.90
13960;DHT22;7052;51.050;3.716;2022-08-19T02:28:12;17.80;99.90
13960;DHT22;7052;51.050;3.716;2022-08-19T02:30:42;17.80;99.90
13960;DHT22;7052;51.050;3.716;2022-08-19T02:33:09;17.70;99.90
13960;DHT22;7052;51.050;3.716;2022-08-19T02:35:35;17.70;99.90
13960;DHT22;7052;51.050;3.716;2022-08-19T02:38:02;17.70;99.90
13960;DHT22;7052;51.050;3.716;2022-08-19T02:40:50;17.70;99.90
13960;DHT22;7052;51.050;3.716;2022-08-19T02:43:19;17.70;99.90
13960;DHT22;7052;51.050;3.716;2022-08-19T02:45:48;17.70;99.90
13960;DHT22;7052;51.050;3.716;2022-08-19T02:48:17;17.60;99.90
13960;DHT22;7052;51.050;3.716;2022-08-19T02:50:45;17.60;99.90
13960;DHT22;7052;51.050;3.716;2022-08-19T02:53:13;17.60;99.90
13960;DHT22;7052;51.050;3.716;2022-08-19T02:55:44;17.60;99.90
13960;DHT22;7052;51.050;3.716;2022-08-19T02:58:11;17.70;99.90
13960;DHT22;7052;51.050;3.716;2022-08-19T03:00:44;17.60;99.90
13960;DHT22;7052;51.050;3.716;2022-08-19T03:03:13;17.70;99.90
13960;DHT22;7052;51.050;3.716;2022-08-19T03:05:41;17.70;99.90
13960;DHT22;7052;51.050;3.716;2022-08-19T03:08:08;17.70;99.90
13960;DHT22;7052;51.050;3.716;2022-08-19T03:10:41;17.70;99.90
13960;DHT22;7052;51.050;3.716;2022-08-19T03:13:11;17.70;99.90
13960;DHT22;7052;51.050;3.716;2022-08-19T03:15:40;17.70;99.90
13960;DHT22;7052;51.050;3.716;2022-08-19T03:18:07;17.70;99.90
13960;DHT22;7052;51.050;3.716;2022-08-19T03:20:40;17.70;99.90
13960;DHT22;7052;51.050;3.716;2022-08-19T03:23:07;17.70;99.90
13960;DHT22;7052;51.050;3.716;2022-08-19T03:25:37;17.70;99.90
13960;DHT22;7052;51.050;3.716;2022-08-19T03:28:04;17.70;99.90
13960;DHT22;7052;51.050;3.716;2022-08-19T03:30:31;17.70;99.90
13960;DHT22;7052;51.050;3.716;2022-08-19T03:32:58;17.70;99.90
13960;DHT22;7052;51.050;3.716;2022-08-19T03:35:24;17.70;99.90
13960;DHT22;7052;51.050;3.716;2022-08-19T03:37:53;17.80;99.90
13960;DHT22;7052;51.050;3.716;2022-08-19T03:40:21;17.80;99.90
13960;DHT22;7052;51.050;3.716;2022-08-19T03:42:48;17.80;99.90
13960;DHT22;7052;51.050;3.716;2022-08-19T03:45:15;17.80;99.90
13960;DHT22;7052;51.050;3.716;2022-08-19T03:47:43;17.80;99.90
13960;DHT22;7052;51.050;3.716;2022-08-19T03:50:11;17.80;99.90
13960;DHT22;7052;51.050;3.716;2022-08-19T03:52:37;17.80;99.90
13960;DHT22;7052;51.050;3.716;2022-08-19T03:55:07;17.90;99.90
13960;DHT22;7052;51.050;3.716;2022-08-19T03:57:34;17.70;99.90
13960;DHT22;7052;51.050;3.716;2022-08-19T04:00:03;17.70;99.90
13960;DHT22;7052;51.050;3.716;2022-08-19T04:02:30;17.60;99.90
13960;DHT22;7052;51.050;3.716;2022-08-19T04:04:57;17.60;99.90
13960;DHT22;7052;51.050;3.716;2022-08-19T04:07:24;17.60;99.90
13960;DHT22;7052;51.050;3.716;2022-08-19T04:09:51;17.60;99.90
13960;DHT22;7052;51.050;3.716;2022-08-19T04:12:20;17.60;99.90
13960;DHT22;7052;51.050;3.716;2022-08-19T04:14:46;17.50;99.90
13960;DHT22;7052;51.050;3.716;2022-08-19T04:17:13;17.50;99.90
13960;DHT22;7052;51.050;3.716;2022-08-19T04:19:40;17.50;99.90
13960;DHT22;7052;51.050;3.716;2022-08-19T04:22:08;17.50;99.90
13960;DHT22;7052;51.050;3.716;2022-08-19T04:24:36;17.50;99.90
13960;DHT22;7052;51.050;3.716;2022-08-19T04:27:04;17.50;99.90
13960;DHT22;7052;51.050;3.716;2022-08-19T04:29:33;17.50;99.90
13960;DHT22;7052;51.050;3.716;2022-08-19T04:32:00;17.50;99.90
13960;DHT22;7052;51.050;3.716;2022-08-19T04:34:28;17.50;99.90
13960;DHT22;7052;51.050;3.716;2022-08-19T04:36:57;17.50;99.90
13960;DHT22;7052;51.050;3.716;2022-08-19T04:39:27;17.50;99.90
13960;DHT22;7052;51.050;3.716;2022-08-19T04:42:16;17.50;99.90
13960;DHT22;7052;51.050;3.716;2022-08-19T04:45:03;17.50;99.90
13960;DHT22;7052;51.050;3.716;2022-08-19T04:47:30;17.50;99.90
13960;DHT22;7052;51.050;3.716;2022-08-19T04:49:58;17.50;99.90
13960;DHT22;7052;51.050;3.716;2022-08-19T04:52:25;17.40;99.90
13960;DHT22;7052;51.050;3.716;2022-08-19T04:54:52;17.50;99.90
13960;DHT22;7052;51.050;3.716;2022-08-19T04:57:21;17.50;99.90
13960;DHT22;7052;51.050;3.716;2022-08-19T04:59:48;17.50;99.90
13960;DHT22;7052;51.050;3.716;2022-08-19T05:02:16;17.50;99.90
13960;DHT22;7052;51.050;3.716;2022-08-19T05:04:43;17.60;99.90
13960;DHT22;7052;51.050;3.716;2022-08-19T05:07:10;17.60;99.90
13960;DHT22;7052;51.050;3.716;2022-08-19T05:09:37;17.60;99.90
13960;DHT22;7052;51.050;3.716;2022-08-19T05:12:04;17.60;99.90
13960;DHT22;7052;51.050;3.716;2022-08-19T05:14:31;17.60;99.90
13960;DHT22;7052;51.050;3.716;2022-08-19T05:17:00;17.70;99.90
13960;DHT22;7052;51.050;3.716;2022-08-19T05:19:28;17.70;99.90
13960;DHT22;7052;51.050;3.716;2022-08-19T05:22:13;17.80;99.90
13960;DHT22;7052;51.050;3.716;2022-08-19T05:24:58;17.90;99.90
13960;DHT22;7052;51.050;3.716;2022-08-19T05:27:25;18.00;99.90
13960;DHT22;7052;51.050;3.716;2022-08-19T05:29:52;18.00;99.90
13960;DHT22;7052;51.050;3.716;2022-08-19T05:32:19;18.10;99.90
13960;DHT22;7052;51.050;3.716;2022-08-19T05:34:48;18.20;99.90
13960;DHT22;7052;51.050;3.716;2022-08-19T05:37:15;18.30;99.90
13960;DHT22;7052;51.050;3.716;2022-08-19T05:39:42;18.30;99.90
13960;DHT22;7052;51.050;3.716;2022-08-19T05:42:10;18.30;99.90
13960;DHT22;7052;51.050;3.716;2022-08-19T05:44:40;18.40;99.90
13960;DHT22;7052;51.050;3.716;2022-08-19T05:47:11;18.40;99.90
13960;DHT22;7052;51.050;3.716;2022-08-19T05:49:38;18.50;99.90
13960;DHT22;7052;51.050;3.716;2022-08-19T05:52:08;18.50;99.90
13960;DHT22;7052;51.050;3.716;2022-08-19T05:54:37;18.60;99.90
13960;DHT22;7052;51.050;3.716;2022-08-19T05:57:08;18.60;99.90
13960;DHT22;7052;51.050;3.716;2022-08-19T05:59:35;18.60;99.90
13960;DHT22;7052;51.050;3.716;2022-08-19T06:02:03;18.70;99.90
13960;DHT22;7052;51.050;3.716;2022-08-19T06:04:31;18.80;99.90
13960;DHT22;7052;51.050;3.716;2022-08-19T06:06:58;18.80;99.90
13960;DHT22;7052;51.050;3.716;2022-08-19T06:09:29;18.90;99.90
13960;DHT22;7052;51.050;3.716;2022-08-19T06:11:58;18.80;99.90
13960;DHT22;7052;51.050;3.716;2022-08-19T06:14:29;18.80;99.90
13960;DHT22;7052;51.050;3.716;2022-08-19T06:16:56;18.80;99.90
13960;DHT22;7052;51.050;3.716;2022-08-19T06:19:25;18.90;99.90
13960;DHT22;7052;51.050;3.716;2022-08-19T06:21:54;18.90;99.90
13960;DHT22;7052;51.050;3.716;2022-08-19T06:24:23;18.90;99.90
13960;DHT22;7052;51.050;3.716;2022-08-19T06:26:53;18.90;99.90
13960;DHT22;7052;51.050;3.716;2022-08-19T06:29:22;19.00;99.90
13960;DHT22;7052;51.050;3.716;2022-08-19T06:31:51;19.20;99.90
13960;DHT22;7052;51.050;3.716;2022-08-19T06:34:18;19.40;99.90
13960;DHT22;7052;51.050;3.716;2022-08-19T06:36:47;19.50;99.90
13960;DHT22;7052;51.050;3.716;2022-08-19T06:39:16;19.60;99.90
13960;DHT22;7052;51.050;3.716;2022-08-19T06:41:46;19.70;99.90
13960;DHT22;7052;51.050;3.716;2022-08-19T06:44:15;19.80;99.90
13960;DHT22;7052;51.050;3.716;2022-08-19T06:46:42;19.90;99.90
13960;DHT22;7052;51.050;3.716;2022-08-19T06:49:10;20.10;99.90
13960;DHT22;7052;51.050;3.716;2022-08-19T06:51:40;20.20;99.90
13960;DHT22;7052;51.050;3.716;2022-08-19T06:54:08;20.20;99.90
13960;DHT22;7052;51.050;3.716;2022-08-19T06:56:35;20.10;99.90
13960;DHT22;7052;51.050;3.716;2022-08-19T06:59:04;20.10;99.90
13960;DHT22;7052;51.050;3.716;2022-08-19T07:01:36;20.10;99.90
13960;DHT22;7052;51.050;3.716;2022-08-19T07:04:04;20.10;99.90
13960;DHT22;7052;51.050;3.716;2022-08-19T07:06:32;20.10;99.90
13960;DHT22;7052;51.050;3.716;2022-08-19T07:08:59;20.10;99.90
13960;DHT22;7052;51.050;3.716;2022-08-19T07:11:26;20.10;99.90
13960;DHT22;7052;51.050;3.716;2022-08-19T07:13:53;20.10;99.90
13960;DHT22;7052;51.050;3.716;2022-08-19T07:16:21;20.10;99.90
13960;DHT22;7052;51.050;3.716;2022-08-19T07:18:50;20.10;99.90
13960;DHT22;7052;51.050;3.716;2022-08-19T07:21:19;20.10;99.90
13960;DHT22;7052;51.050;3.716;2022-08-19T07:23:47;20.20;99.90
13960;DHT22;7052;51.050;3.716;2022-08-19T07:26:16;20.10;99.90
13960;DHT22;7052;51.050;3.716;2022-08-19T07:28:45;20.10;99.90
13960;DHT22;7052;51.050;3.716;2022-08-19T07:31:14;20.10;99.90
13960;DHT22;7052;51.050;3.716;2022-08-19T07:33:41;20.10;99.90
13960;DHT22;7052;51.050;3.716;2022-08-19T07:36:12;20.20;99.90
13960;DHT22;7052;51.050;3.716;2022-08-19T07:38:40;20.20;99.90
13960;DHT22;7052;51.050;3.716;2022-08-19T07:41:10;20.30;99.90
13960;DHT22;7052;51.050;3.716;2022-08-19T07:43:37;20.30;99.90
13960;DHT22;7052;51.050;3.716;2022-08-19T07:46:04;20.40;99.90
13960;DHT22;7052;51.050;3.716;2022-08-19T07:48:31;20.40;99.90
13960;DHT22;7052;51.050;3.716;2022-08-19T07:51:00;20.50;99.90
13960;DHT22;7052;51.050;3.716;2022-08-19T07:53:30;20.50;99.90
13960;DHT22;7052;51.050;3.716;2022-08-19T07:55:58;20.50;99.90
13960;DHT22;7052;51.050;3.716;2022-08-19T07:58:31;20.50;99.90
13960;DHT22;7052;51.050;3.716;2022-08-19T08:00:58;20.50;99.90
13960;DHT22;7052;51.050;3.716;2022-08-19T08:03:27;20.50;99.90
13960;DHT22;7052;51.050;3.716;2022-08-19T08:06:08;20.50;99.90
13960;DHT22;7052;51.050;3.716;2022-08-19T08:08:54;20.50;99.90
13960;DHT22;7052;51.050;3.716;2022-08-19T08:11:46;20.50;99.90
13960;DHT22;7052;51.050;3.716;2022-08-19T08:14:16;20.60;99.90
13960;DHT22;7052;51.050;3.716;2022-08-19T08:16:43;20.60;99.90
13960;DHT22;7052;51.050;3.716;2022-08-19T08:19:11;20.60;99.90
13960;DHT22;7052;51.050;3.716;2022-08-19T08:21:40;20.60;99.90
13960;DHT22;7052;51.050;3.716;2022-08-19T08:24:08;20.60;99.90
13960;DHT22;7052;51.050;3.716;2022-08-19T08:26:35;20.60;99.90
13960;DHT22;7052;51.050;3.716;2022-08-19T08:29:03;20.60;99.90
13960;DHT22;7052;51.050;3.716;2022-08-19T08:31:30;20.60;99.90
13960;DHT22;7052;51.050;3.716;2022-08-19T08:33:59;20.70;99.90
13960;DHT22;7052;51.050;3.716;2022-08-19T08:36:25;20.70;99.90
13960;DHT22;7052;51.050;3.716;2022-08-19T08:38:53;20.80;99.90
13960;DHT22;7052;51.050;3.716;2022-08-19T08:41:26;20.80;99.90
13960;DHT22;7052;51.050;3.716;2022-08-19T08:43:55;20.90;99.90
13960;DHT22;7052;51.050;3.716;2022-08-19T08:46:28;21.00;99.90
13960;DHT22;7052;51.050;3.716;2022-08-19T08:49:02;21.10;99.90
13960;DHT22;7052;51.050;3.716;2022-08-19T08:51:34;21.20;99.90
13960;DHT22;7052;51.050;3.716;2022-08-19T08:54:04;21.30;99.90
13960;DHT22;7052;51.050;3.716;2022-08-19T08:56:33;21.30;99.90
13960;DHT22;7052;51.050;3.716;2022-08-19T08:59:03;21.40;99.90
13960;DHT22;7052;51.050;3.716;2022-08-19T09:01:33;21.30;99.90
13960;DHT22;7052;51.050;3.716;2022-08-19T09:04:00;21.40;99.90
13960;DHT22;7052;51.050;3.716;2022-08-19T09:06:38;21.40;99.90
13960;DHT22;7052;51.050;3.716;2022-08-19T09:09:14;21.50;99.90
13960;DHT22;7052;51.050;3.716;2022-08-19T09:11:55;21.50;99.90
13960;DHT22;7052;51.050;3.716;2022-08-19T09:14:37;21.50;99.90
13960;DHT22;7052;51.050;3.716;2022-08-19T09:17:07;21.50;99.90
13960;DHT22;7052;51.050;3.716;2022-08-19T09:19:35;21.40;99.90
13960;DHT22;7052;51.050;3.716;2022-08-19T09:22:02;21.50;99.90
13960;DHT22;7052;51.050;3.716;2022-08-19T09:24:30;21.50;99.90
13960;DHT22;7052;51.050;3.716;2022-08-19T09:26:59;21.60;99.90
13960;DHT22;7052;51.050;3.716;2022-08-19T09:29:26;21.80;99.90
13960;DHT22;7052;51.050;3.716;2022-08-19T09:31:55;22.00;99.90
13960;DHT22;7052;51.050;3.716;2022-08-19T09:34:21;22.30;99.90
13960;DHT22;7052;51.050;3.716;2022-08-19T09:36:49;22.60;99.90
13960;DHT22;7052;51.050;3.716;2022-08-19T09:39:20;22.80;99.90
13960;DHT22;7052;51.050;3.716;2022-08-19T09:41:47;23.00;99.90
13960;DHT22;7052;51.050;3.716;2022-08-19T09:44:17;23.10;99.90
13960;DHT22;7052;51.050;3.716;2022-08-19T09:46:46;23.30;99.90
13960;DHT22;7052;51.050;3.716;2022-08-19T09:49:14;23.50;99.90
13960;DHT22;7052;51.050;3.716;2022-08-19T09:51:42;23.60;99.90
13960;DHT22;7052;51.050;3.716;2022-08-19T09:54:09;23.70;99.90
13960;DHT22;7052;51.050;3.716;2022-08-19T09:56:36;23.70;99.90
13960;DHT22;7052;51.050;3.716;2022-08-19T09:59:03;23.70;99.90
13960;DHT22;7052;51.050;3.716;2022-08-19T10:01:32;23.60;99.90
13960;DHT22;7052;51.050;3.716;2022-08-19T10:03:59;23.70;99.90
13960;DHT22;7052;51.050;3.716;2022-08-19T10:06:29;23.60;99.90
13960;DHT22;7052;51.050;3.716;2022-08-19T10:08:58;23.50;99.90
13960;DHT22;7052;51.050;3.716;2022-08-19T10:11:25;23.40;99.90
13960;DHT22;7052;51.050;3.716;2022-08-19T10:13:53;23.20;99.90
13960;DHT22;7052;51.050;3.716;2022-08-19T10:16:22;23.10;99.90
13960;DHT22;7052;51.050;3.716;2022-08-19T10:18:51;23.10;99.90
13960;DHT22;7052;51.050;3.716;2022-08-19T10:21:21;23.00;99.90
13960;DHT22;7052;51.050;3.716;2022-08-19T10:23:50;23.10;99.90
13960;DHT22;7052;51.050;3.716;2022-08-19T10:26:19;23.00;99.90
13960;DHT22;7052;51.050;3.716;2022-08-19T10:28:47;23.10;99.90
13960;DHT22;7052;51.050;3.716;2022-08-19T10:31:16;23.20;99.90
13960;DHT22;7052;51.050;3.716;2022-08-19T10:33:43;23.30;99.90
13960;DHT22;7052;51.050;3.716;2022-08-19T10:36:14;23.50;99.90
13960;DHT22;7052;51.050;3.716;2022-08-19T10:38:43;23.60;99.90
13960;DHT22;7052;51.050;3.716;2022-08-19T10:41:13;23.60;99.90
13960;DHT22;7052;51.050;3.716;2022-08-19T10:43:40;23.60;99.90
13960;DHT22;7052;51.050;3.716;2022-08-19T10:46:09;23.60;99.90
13960;DHT22;7052;51.050;3.716;2022-08-19T10:48:37;23.60;99.90
13960;DHT22;7052;51.050;3.716;2022-08-19T10:51:04;23.70;99.90
13960;DHT22;7052;51.050;3.716;2022-08-19T10:53:51;23.80;99.90
13960;DHT22;7052;51.050;3.716;2022-08-19T10:56:18;23.80;99.90
13960;DHT22;7052;51.050;3.716;2022-08-19T10:59:03;23.80;99.90
13960;DHT22;7052;51.050;3.716;2022-08-19T11:01:31;23.80;99.90
13960;DHT22;7052;51.050;3.716;2022-08-19T11:03:59;23.60;99.90
13960;DHT22;7052;51.050;3.716;2022-08-19T11:06:27;23.60;99.90
13960;DHT22;7052;51.050;3.716;2022-08-19T11:08:56;23.50;99.90
13960;DHT22;7052;51.050;3.716;2022-08-19T11:11:23;23.60;99.90
13960;DHT22;7052;51.050;3.716;2022-08-19T11:13:50;23.60;99.90
13960;DHT22;7052;51.050;3.716;2022-08-19T11:16:20;23.60;99.90
13960;DHT22;7052;51.050;3.716;2022-08-19T11:18:50;23.60;99.90
13960;DHT22;7052;51.050;3.716;2022-08-19T11:21:19;23.60;99.90
13960;DHT22;7052;51.050;3.716;2022-08-19T11:23:47;23.60;99.90
13960;DHT22;7052;51.050;3.716;2022-08-19T11:26:17;23.60;99.90
13960;DHT22;7052;51.050;3.716;2022-08-19T11:28:44;23.60;99.90
13960;DHT22;7052;51.050;3.716;2022-08-19T11:31:11;23.50;99.90
13960;DHT22;7052;51.050;3.716;2022-08-19T11:33:38;23.50;99.90
13960;DHT22;7052;51.050;3.716;2022-08-19T11:36:06;23.50;99.90
13960;DHT22;7052;51.050;3.716;2022-08-19T11:38:33;23.60;99.90
13960;DHT22;7052;51.050;3.716;2022-08-19T11:41:04;23.70;99.90
13960;DHT22;7052;51.050;3.716;2022-08-19T11:43:33;23.70;99.90
13960;DHT22;7052;51.050;3.716;2022-08-19T11:46:04;23.80;99.90
13960;DHT22;7052;51.050;3.716;2022-08-19T11:48:32;23.90;99.90
13960;DHT22;7052;51.050;3.716;2022-08-19T11:51:03;24.00;99.90
13960;DHT22;7052;51.050;3.716;2022-08-19T11:53:32;24.10;99.90
13960;DHT22;7052;51.050;3.716;2022-08-19T11:55:59;24.20;99.90
13960;DHT22;7052;51.050;3.716;2022-08-19T11:58:26;24.10;99.90
13960;DHT22;7052;51.050;3.716;2022-08-19T12:00:56;24.00;99.90
13960;DHT22;7052;51.050;3.716;2022-08-19T12:03:23;23.90;99.90
13960;DHT22;7052;51.050;3.716;2022-08-19T12:05:51;23.90;99.90
13960;DHT22;7052;51.050;3.716;2022-08-19T12:08:18;24.00;99.90
13960;DHT22;7052;51.050;3.716;2022-08-19T12:10:47;24.10;99.90
13960;DHT22;7052;51.050;3.716;2022-08-19T12:13:14;24.20;99.90
13960;DHT22;7052;51.050;3.716;2022-08-19T12:15:45;24.30;99.90
13960;DHT22;7052;51.050;3.716;2022-08-19T12:18:14;24.40;99.90
13960;DHT22;7052;51.050;3.716;2022-08-19T12:20:42;24.60;99.90
13960;DHT22;7052;51.050;3.716;2022-08-19T12:23:11;24.90;99.90
13960;DHT22;7052;51.050;3.716;2022-08-19T12:25:44;25.00;99.90
13960;DHT22;7052;51.050;3.716;2022-08-19T12:28:13;25.10;99.90
13960;DHT22;7052;51.050;3.716;2022-08-19T12:30:41;25.20;99.90
13960;DHT22;7052;51.050;3.716;2022-08-19T12:33:08;25.20;99.90
13960;DHT22;7052;51.050;3.716;2022-08-19T12:35:39;25.20;99.90
13960;DHT22;7052;51.050;3.716;2022-08-19T12:38:06;25.20;99.90
13960;DHT22;7052;51.050;3.716;2022-08-19T12:40:33;25.10;99.90
13960;DHT22;7052;51.050;3.716;2022-08-19T12:43:00;25.00;99.90
13960;DHT22;7052;51.050;3.716;2022-08-19T12:45:27;25.00;99.90
13960;DHT22;7052;51.050;3.716;2022-08-19T12:47:54;25.00;99.90
13960;DHT22;7052;51.050;3.716;2022-08-19T12:50:21;25.00;99.90
13960;DHT22;7052;51.050;3.716;2022-08-19T12:52:49;24.90;99.90
13960;DHT22;7052;51.050;3.716;2022-08-19T12:55:17;24.80;99.90
13960;DHT22;7052;51.050;3.716;2022-08-19T12:57:45;24.70;99.90
13960;DHT22;7052;51.050;3.716;2022-08-19T13:00:15;24.80;99.90
13960;DHT22;7052;51.050;3.716;2022-08-19T13:02:44;24.90;99.90
13960;DHT22;7052;51.050;3.716;2022-08-19T13:05:14;25.00;99.90
13960;DHT22;7052;51.050;3.716;2022-08-19T13:07:41;25.00;99.90
13960;DHT22;7052;51.050;3.716;2022-08-19T13:10:13;25.00;99.90
13960;DHT22;7052;51.050;3.716;2022-08-19T13:12:41;25.00;99.90
13960;DHT22;7052;51.050;3.716;2022-08-19T13:15:09;24.90;99.90
13960;DHT22;7052;51.050;3.716;2022-08-19T13:17:37;24.90;99.90
13960;DHT22;7052;51.050;3.716;2022-08-19T13:20:05;24.70;99.90
13960;DHT22;7052;51.050;3.716;2022-08-19T13:22:33;24.50;99.90
13960;DHT22;7052;51.050;3.716;2022-08-19T13:25:01;24.00;99.90
13960;DHT22;7052;51.050;3.716;2022-08-19T13:27:30;23.40;99.90
13960;DHT22;7052;51.050;3.716;2022-08-19T13:29:57;22.90;99.90
13960;DHT22;7052;51.050;3.716;2022-08-19T13:32:41;22.50;99.90
13960;DHT22;7052;51.050;3.716;2022-08-19T13:35:25;22.10;99.90
13960;DHT22;7052;51.050;3.716;2022-08-19T13:37:52;21.90;99.90
13960;DHT22;7052;51.050;3.716;2022-08-19T13:40:22;21.80;99.90
13960;DHT22;7052;51.050;3.716;2022-08-19T13:42:52;21.80;99.90
13960;DHT22;7052;51.050;3.716;2022-08-19T13:45:22;21.90;99.90
13960;DHT22;7052;51.050;3.716;2022-08-19T13:47:51;22.00;99.90
13960;DHT22;7052;51.050;3.716;2022-08-19T13:50:21;22.20;99.90
13960;DHT22;7052;51.050;3.716;2022-08-19T13:52:50;22.40;99.90
13960;DHT22;7052;51.050;3.716;2022-08-19T13:55:17;22.40;99.90
13960;DHT22;7052;51.050;3.716;2022-08-19T13:57:44;22.50;99.90
13960;DHT22;7052;51.050;3.716;2022-08-19T14:00:15;22.60;99.90
13960;DHT22;7052;51.050;3.716;2022-08-19T14:02:44;22.70;99.90
13960;DHT22;7052;51.050;3.716;2022-08-19T14:05:13;22.90;99.90
13960;DHT22;7052;51.050;3.716;2022-08-19T14:07:40;23.10;99.90
13960;DHT22;7052;51.050;3.716;2022-08-19T14:10:09;23.20;99.90
13960;DHT22;7052;51.050;3.716;2022-08-19T14:12:37;23.40;99.90
13960;DHT22;7052;51.050;3.716;2022-08-19T14:15:05;23.60;99.90
13960;DHT22;7052;51.050;3.716;2022-08-19T14:17:33;23.70;99.90
13960;DHT22;7052;51.050;3.716;2022-08-19T14:20:03;23.90;99.90
13960;DHT22;7052;51.050;3.716;2022-08-19T14:22:33;23.90;99.90
13960;DHT22;7052;51.050;3.716;2022-08-19T14:25:00;23.90;99.90
13960;DHT22;7052;51.050;3.716;2022-08-19T14:27:27;23.80;99.90
13960;DHT22;7052;51.050;3.716;2022-08-19T14:29:54;23.70;99.90
13960;DHT22;7052;51.050;3.716;2022-08-19T14:32:21;23.70;99.90
13960;DHT22;7052;51.050;3.716;2022-08-19T14:34:49;23.60;99.90
13960;DHT22;7052;51.050;3.716;2022-08-19T14:37:17;23.60;99.90
13960;DHT22;7052;51.050;3.716;2022-08-19T14:39:44;23.80;99.90
13960;DHT22;7052;51.050;3.716;2022-08-19T14:42:12;24.00;99.90
13960;DHT22;7052;51.050;3.716;2022-08-19T14:44:40;24.20;99.90
13960;DHT22;7052;51.050;3.716;2022-08-19T14:47:07;24.40;99.90
13960;DHT22;7052;51.050;3.716;2022-08-19T14:49:35;24.40;99.90
13960;DHT22;7052;51.050;3.716;2022-08-19T14:52:03;24.50;99.90
13960;DHT22;7052;51.050;3.716;2022-08-19T14:54:30;24.40;99.90
13960;DHT22;7052;51.050;3.716;2022-08-19T14:56:57;24.30;99.90
13960;DHT22;7052;51.050;3.716;2022-08-19T14:59:24;24.40;99.90
13960;DHT22;7052;51.050;3.716;2022-08-19T15:01:51;24.40;99.90
13960;DHT22;7052;51.050;3.716;2022-08-19T15:04:18;24.60;99.90
13960;DHT22;7052;51.050;3.716;2022-08-19T15:06:45;24.70;99.90
13960;DHT22;7052;51.050;3.716;2022-08-19T15:09:16;24.80;99.90
13960;DHT22;7052;51.050;3.716;2022-08-19T15:11:43;24.80;99.90
13960;DHT22;7052;51.050;3.716;2022-08-19T15:14:10;24.80;99.90
13960;DHT22;7052;51.050;3.716;2022-08-19T15:16:37;24.80;99.90
13960;DHT22;7052;51.050;3.716;2022-08-19T15:19:07;24.80;99.90
13960;DHT22;7052;51.050;3.716;2022-08-19T15:21:35;24.70;99.90
13960;DHT22;7052;51.050;3.716;2022-08-19T15:24:03;24.60;99.90
13960;DHT22;7052;51.050;3.716;2022-08-19T15:26:33;24.60;99.90
13960;DHT22;7052;51.050;3.716;2022-08-19T15:29:00;24.50;99.90
13960;DHT22;7052;51.050;3.716;2022-08-19T15:31:28;24.60;99.90
13960;DHT22;7052;51.050;3.716;2022-08-19T15:34:02;24.70;99.90
13960;DHT22;7052;51.050;3.716;2022-08-19T15:36:31;25.00;99.90
13960;DHT22;7052;51.050;3.716;2022-08-19T15:38:58;25.10;99.90
13960;DHT22;7052;51.050;3.716;2022-08-19T15:41:27;25.20;99.90
13960;DHT22;7052;51.050;3.716;2022-08-19T15:44:00;25.20;99.90
13960;DHT22;7052;51.050;3.716;2022-08-19T15:46:29;25.10;99.90
13960;DHT22;7052;51.050;3.716;2022-08-19T15:48:57;25.00;99.90
13960;DHT22;7052;51.050;3.716;2022-08-19T15:51:25;24.90;99.90
13960;DHT22;7052;51.050;3.716;2022-08-19T15:53:53;24.80;99.90
13960;DHT22;7052;51.050;3.716;2022-08-19T15:56:20;24.70;99.90
13960;DHT22;7052;51.050;3.716;2022-08-19T15:58:46;24.60;99.90
13960;DHT22;7052;51.050;3.716;2022-08-19T16:01:33;24.40;99.90